sensor_id;sensor_type;location;lat;lon;timestamp;P1;durP1;ratioP1;P2;durP2;ratioP2
56911;SDS011;42800;53.928;27.662;2023-07-31T00:00:30;23.10;;;13.45;;
56911;SDS011;42800;53.928;27.662;2023-07-31T00:02:56;25.30;;;13.10;;
56911;SDS011;42800;53.928;27.662;2023-07-31T00:05:22;22.92;;;13.30;;
56911;SDS011;42800;53.928;27.662;2023-07-31T00:07:48;18.95;;;12.30;;
56911;SDS011;42800;53.928;27.662;2023-07-31T00:10:14;20.70;;;12.88;;
56911;SDS011;42800;53.928;27.662;2023-07-31T00:12:42;19.60;;;12.68;;
56911;SDS011;42800;53.928;27.662;2023-07-31T00:15:09;19.05;;;13.50;;
56911;SDS011;42800;53.928;27.662;2023-07-31T00:17:35;18.13;;;11.70;;
56911;SDS011;42800;53.928;27.662;2023-07-31T00:20:02;22.40;;;12.60;;
56911;SDS011;42800;53.928;27.662;2023-07-31T00:22:28;14.10;;;11.13;;
56911;SDS011;42800;53.928;27.662;2023-07-31T00:24:55;17.88;;;12.10;;
56911;SDS011;42800;53.928;27.662;2023-07-31T00:27:22;18.75;;;11.68;;
56911;SDS011;42800;53.928;27.662;2023-07-31T00:29:47;15.50;;;11.30;;
56911;SDS011;42800;53.928;27.662;2023-07-31T00:32:13;20.08;;;11.45;;
56911;SDS011;42800;53.928;27.662;2023-07-31T00:34:39;16.58;;;11.32;;
56911;SDS011;42800;53.928;27.662;2023-07-31T00:37:05;22.90;;;11.32;;
56911;SDS011;42800;53.928;27.662;2023-07-31T00:39:33;17.15;;;11.32;;
56911;SDS011;42800;53.928;27.662;2023-07-31T00:42:00;18.08;;;10.55;;
56911;SDS011;42800;53.928;27.662;2023-07-31T00:44:26;17.27;;;10.32;;
56911;SDS011;42800;53.928;27.662;2023-07-31T00:46:52;15.75;;;10.55;;
56911;SDS011;42800;53.928;27.662;2023-07-31T00:49:19;14.18;;;9.98;;
56911;SDS011;42800;53.928;27.662;2023-07-31T00:51:46;19.23;;;10.70;;
56911;SDS011;42800;53.928;27.662;2023-07-31T00:54:12;20.50;;;11.82;;
56911;SDS011;42800;53.928;27.662;2023-07-31T00:56:38;15.10;;;10.45;;
56911;SDS011;42800;53.928;27.662;2023-07-31T00:59:06;27.30;;;22.50;;
56911;SDS011;42800;53.928;27.662;2023-07-31T01:01:32;23.48;;;11.43;;
56911;SDS011;42800;53.928;27.662;2023-07-31T01:03:58;16.92;;;11.05;;
56911;SDS011;42800;53.928;27.662;2023-07-31T01:06:27;20.73;;;11.48;;
56911;SDS011;42800;53.928;27.662;2023-07-31T01:09:01;18.38;;;12.02;;
56911;SDS011;42800;53.928;27.662;2023-07-31T01:11:30;22.70;;;12.40;;
56911;SDS011;42800;53.928;27.662;2023-07-31T01:13:57;18.50;;;16.63;;
56911;SDS011;42800;53.928;27.662;2023-07-31T01:16:25;19.45;;;17.15;;
56911;SDS011;42800;53.928;27.662;2023-07-31T01:18:51;31.25;;;10.80;;
56911;SDS011;42800;53.928;27.662;2023-07-31T01:21:21;18.20;;;10.55;;
56911;SDS011;42800;53.928;27.662;2023-07-31T01:24:10;13.48;;;9.63;;
56911;SDS011;42800;53.928;27.662;2023-07-31T01:26:51;16.25;;;10.88;;
56911;SDS011;42800;53.928;27.662;2023-07-31T01:29:23;21.38;;;11.15;;
56911;SDS011;42800;53.928;27.662;2023-07-31T01:31:55;14.45;;;10.75;;
56911;SDS011;42800;53.928;27.662;2023-07-31T01:34:26;17.45;;;10.57;;
56911;SDS011;42800;53.928;27.662;2023-07-31T01:36:53;20.23;;;18.20;;
56911;SDS011;42800;53.928;27.662;2023-07-31T01:39:20;20.75;;;15.52;;
56911;SDS011;42800;53.928;27.662;2023-07-31T01:41:46;15.18;;;10.32;;
56911;SDS011;42800;53.928;27.662;2023-07-31T01:44:13;16.38;;;10.98;;
56911;SDS011;42800;53.928;27.662;2023-07-31T01:46:39;12.93;;;9.60;;
56911;SDS011;42800;53.928;27.662;2023-07-31T01:49:05;15.50;;;10.68;;
56911;SDS011;42800;53.928;27.662;2023-07-31T01:51:31;17.02;;;10.77;;
56911;SDS011;42800;53.928;27.662;2023-07-31T01:53:59;21.50;;;10.55;;
56911;SDS011;42800;53.928;27.662;2023-07-31T01:56:25;20.15;;;10.88;;
56911;SDS011;42800;53.928;27.662;2023-07-31T01:58:51;20.42;;;18.33;;
56911;SDS011;42800;53.928;27.662;2023-07-31T02:01:17;13.40;;;9.45;;
56911;SDS011;42800;53.928;27.662;2023-07-31T02:03:43;14.93;;;9.77;;
56911;SDS011;42800;53.928;27.662;2023-07-31T02:06:09;17.23;;;10.52;;
56911;SDS011;42800;53.928;27.662;2023-07-31T02:08:35;20.90;;;10.77;;
56911;SDS011;42800;53.928;27.662;2023-07-31T02:11:01;16.05;;;10.55;;
56911;SDS011;42800;53.928;27.662;2023-07-31T02:13:27;17.38;;;15.45;;
56911;SDS011;42800;53.928;27.662;2023-07-31T02:15:53;17.42;;;12.25;;
56911;SDS011;42800;53.928;27.662;2023-07-31T02:18:19;20.27;;;11.57;;
56911;SDS011;42800;53.928;27.662;2023-07-31T02:20:48;16.58;;;11.15;;
56911;SDS011;42800;53.928;27.662;2023-07-31T02:23:15;20.80;;;11.40;;
56911;SDS011;42800;53.928;27.662;2023-07-31T02:25:40;22.17;;;19.50;;
56911;SDS011;42800;53.928;27.662;2023-07-31T02:28:06;18.08;;;11.73;;
56911;SDS011;42800;53.928;27.662;2023-07-31T02:30:35;17.95;;;11.40;;
56911;SDS011;42800;53.928;27.662;2023-07-31T02:33:01;19.25;;;11.60;;
56911;SDS011;42800;53.928;27.662;2023-07-31T02:35:28;19.25;;;11.35;;
56911;SDS011;42800;53.928;27.662;2023-07-31T02:37:54;19.20;;;12.32;;
56911;SDS011;42800;53.928;27.662;2023-07-31T02:40:19;19.70;;;12.27;;
56911;SDS011;42800;53.928;27.662;2023-07-31T02:42:45;19.40;;;12.18;;
56911;SDS011;42800;53.928;27.662;2023-07-31T02:45:11;19.35;;;12.20;;
56911;SDS011;42800;53.928;27.662;2023-07-31T02:47:38;21.92;;;12.88;;
56911;SDS011;42800;53.928;27.662;2023-07-31T02:50:04;17.83;;;12.30;;
56911;SDS011;42800;53.928;27.662;2023-07-31T02:52:31;23.40;;;13.05;;
56911;SDS011;42800;53.928;27.662;2023-07-31T02:54:57;18.70;;;12.98;;
56911;SDS011;42800;53.928;27.662;2023-07-31T02:57:23;18.83;;;11.60;;
56911;SDS011;42800;53.928;27.662;2023-07-31T02:59:50;22.02;;;12.05;;
56911;SDS011;42800;53.928;27.662;2023-07-31T03:02:16;21.92;;;10.63;;
56911;SDS011;42800;53.928;27.662;2023-07-31T03:04:41;19.38;;;11.02;;
56911;SDS011;42800;53.928;27.662;2023-07-31T03:07:07;18.80;;;10.63;;
56911;SDS011;42800;53.928;27.662;2023-07-31T03:09:34;20.15;;;16.85;;
56911;SDS011;42800;53.928;27.662;2023-07-31T03:12:00;19.85;;;15.52;;
56911;SDS011;42800;53.928;27.662;2023-07-31T03:14:26;18.30;;;11.10;;
56911;SDS011;42800;53.928;27.662;2023-07-31T03:16:52;23.13;;;10.27;;
56911;SDS011;42800;53.928;27.662;2023-07-31T03:19:18;19.70;;;10.95;;
56911;SDS011;42800;53.928;27.662;2023-07-31T03:21:44;20.02;;;11.30;;
56911;SDS011;42800;53.928;27.662;2023-07-31T03:24:09;18.45;;;11.60;;
56911;SDS011;42800;53.928;27.662;2023-07-31T03:26:37;23.05;;;17.02;;
56911;SDS011;42800;53.928;27.662;2023-07-31T03:29:06;17.00;;;10.43;;
56911;SDS011;42800;53.928;27.662;2023-07-31T03:31:32;15.10;;;9.85;;
56911;SDS011;42800;53.928;27.662;2023-07-31T03:33:58;19.50;;;14.30;;
56911;SDS011;42800;53.928;27.662;2023-07-31T03:36:24;17.55;;;9.52;;
56911;SDS011;42800;53.928;27.662;2023-07-31T03:38:50;17.35;;;10.90;;
56911;SDS011;42800;53.928;27.662;2023-07-31T03:41:16;25.58;;;11.40;;
56911;SDS011;42800;53.928;27.662;2023-07-31T03:43:45;18.83;;;10.52;;
56911;SDS011;42800;53.928;27.662;2023-07-31T03:46:11;24.92;;;11.40;;
56911;SDS011;42800;53.928;27.662;2023-07-31T03:48:38;16.30;;;10.98;;
56911;SDS011;42800;53.928;27.662;2023-07-31T03:51:04;17.60;;;10.35;;
56911;SDS011;42800;53.928;27.662;2023-07-31T03:53:29;15.52;;;10.05;;
56911;SDS011;42800;53.928;27.662;2023-07-31T03:55:55;17.70;;;15.82;;
56911;SDS011;42800;53.928;27.662;2023-07-31T03:58:21;17.08;;;11.52;;
56911;SDS011;42800;53.928;27.662;2023-07-31T04:00:48;18.38;;;10.35;;
56911;SDS011;42800;53.928;27.662;2023-07-31T04:03:14;14.38;;;9.40;;
56911;SDS011;42800;53.928;27.662;2023-07-31T04:05:40;14.40;;;9.48;;
56911;SDS011;42800;53.928;27.662;2023-07-31T04:08:06;14.20;;;9.38;;
56911;SDS011;42800;53.928;27.662;2023-07-31T04:10:31;15.50;;;9.63;;
56911;SDS011;42800;53.928;27.662;2023-07-31T04:12:58;15.18;;;9.85;;
56911;SDS011;42800;53.928;27.662;2023-07-31T04:15:24;20.25;;;10.05;;
56911;SDS011;42800;53.928;27.662;2023-07-31T04:17:51;16.58;;;10.02;;
56911;SDS011;42800;53.928;27.662;2023-07-31T04:20:17;16.60;;;8.38;;
56911;SDS011;42800;53.928;27.662;2023-07-31T04:22:43;16.63;;;8.95;;
56911;SDS011;42800;53.928;27.662;2023-07-31T04:25:08;18.75;;;14.73;;
56911;SDS011;42800;53.928;27.662;2023-07-31T04:27:34;15.80;;;10.00;;
56911;SDS011;42800;53.928;27.662;2023-07-31T04:30:00;16.33;;;11.23;;
56911;SDS011;42800;53.928;27.662;2023-07-31T04:32:26;18.45;;;11.57;;
56911;SDS011;42800;53.928;27.662;2023-07-31T04:34:53;21.95;;;12.57;;
56911;SDS011;42800;53.928;27.662;2023-07-31T04:37:19;22.08;;;12.32;;
56911;SDS011;42800;53.928;27.662;2023-07-31T04:39:44;24.33;;;13.38;;
56911;SDS011;42800;53.928;27.662;2023-07-31T04:42:10;21.80;;;12.63;;
56911;SDS011;42800;53.928;27.662;2023-07-31T04:44:36;19.02;;;12.27;;
56911;SDS011;42800;53.928;27.662;2023-07-31T04:47:02;22.70;;;12.57;;
56911;SDS011;42800;53.928;27.662;2023-07-31T04:49:29;24.95;;;16.40;;
56911;SDS011;42800;53.928;27.662;2023-07-31T04:51:55;22.00;;;15.98;;
56911;SDS011;42800;53.928;27.662;2023-07-31T04:54:21;21.50;;;15.02;;
56911;SDS011;42800;53.928;27.662;2023-07-31T04:56:47;19.33;;;10.82;;
56911;SDS011;42800;53.928;27.662;2023-07-31T04:59:13;16.30;;;12.75;;
56911;SDS011;42800;53.928;27.662;2023-07-31T05:01:39;11.15;;;9.23;;
56911;SDS011;42800;53.928;27.662;2023-07-31T05:04:05;11.55;;;8.73;;
56911;SDS011;42800;53.928;27.662;2023-07-31T05:06:31;14.48;;;9.05;;
56911;SDS011;42800;53.928;27.662;2023-07-31T05:08:57;14.93;;;9.60;;
56911;SDS011;42800;53.928;27.662;2023-07-31T05:11:23;12.38;;;9.25;;
56911;SDS011;42800;53.928;27.662;2023-07-31T05:13:49;12.30;;;10.77;;
56911;SDS011;42800;53.928;27.662;2023-07-31T05:16:15;12.98;;;9.90;;
56911;SDS011;42800;53.928;27.662;2023-07-31T05:18:41;12.27;;;11.10;;
56911;SDS011;42800;53.928;27.662;2023-07-31T05:21:07;13.45;;;8.30;;
56911;SDS011;42800;53.928;27.662;2023-07-31T05:23:33;12.25;;;8.65;;
56911;SDS011;42800;53.928;27.662;2023-07-31T05:26:02;12.13;;;10.63;;
56911;SDS011;42800;53.928;27.662;2023-07-31T05:28:29;10.30;;;7.80;;
56911;SDS011;42800;53.928;27.662;2023-07-31T05:30:58;10.38;;;9.35;;
56911;SDS011;42800;53.928;27.662;2023-07-31T05:33:24;10.55;;;9.55;;
56911;SDS011;42800;53.928;27.662;2023-07-31T05:35:50;11.10;;;7.07;;
56911;SDS011;42800;53.928;27.662;2023-07-31T05:38:16;11.85;;;6.95;;
56911;SDS011;42800;53.928;27.662;2023-07-31T05:40:42;13.68;;;7.07;;
56911;SDS011;42800;53.928;27.662;2023-07-31T05:43:09;12.02;;;7.90;;
56911;SDS011;42800;53.928;27.662;2023-07-31T05:45:35;11.75;;;6.88;;
56911;SDS011;42800;53.928;27.662;2023-07-31T05:48:01;9.57;;;6.20;;
56911;SDS011;42800;53.928;27.662;2023-07-31T05:50:27;9.05;;;6.15;;
56911;SDS011;42800;53.928;27.662;2023-07-31T05:52:53;10.25;;;7.30;;
56911;SDS011;42800;53.928;27.662;2023-07-31T05:55:19;10.57;;;6.60;;
56911;SDS011;42800;53.928;27.662;2023-07-31T05:57:46;9.55;;;7.72;;
56911;SDS011;42800;53.928;27.662;2023-07-31T06:00:13;8.55;;;6.80;;
56911;SDS011;42800;53.928;27.662;2023-07-31T06:02:40;9.30;;;6.13;;
56911;SDS011;42800;53.928;27.662;2023-07-31T06:05:06;8.75;;;6.18;;
56911;SDS011;42800;53.928;27.662;2023-07-31T06:07:32;8.82;;;5.13;;
56911;SDS011;42800;53.928;27.662;2023-07-31T06:09:58;11.23;;;7.15;;
56911;SDS011;42800;53.928;27.662;2023-07-31T06:12:30;19.30;;;9.05;;
56911;SDS011;42800;53.928;27.662;2023-07-31T06:14:56;7.53;;;6.03;;
56911;SDS011;42800;53.928;27.662;2023-07-31T06:17:22;7.45;;;5.70;;
56911;SDS011;42800;53.928;27.662;2023-07-31T06:19:48;6.53;;;5.57;;
56911;SDS011;42800;53.928;27.662;2023-07-31T06:22:14;5.60;;;5.10;;
56911;SDS011;42800;53.928;27.662;2023-07-31T06:24:40;7.03;;;5.38;;
56911;SDS011;42800;53.928;27.662;2023-07-31T06:27:06;7.57;;;5.45;;
56911;SDS011;42800;53.928;27.662;2023-07-31T06:29:32;6.55;;;4.60;;
56911;SDS011;42800;53.928;27.662;2023-07-31T06:31:58;6.60;;;4.95;;
56911;SDS011;42800;53.928;27.662;2023-07-31T06:34:25;7.20;;;5.05;;
56911;SDS011;42800;53.928;27.662;2023-07-31T06:36:51;5.40;;;4.75;;
56911;SDS011;42800;53.928;27.662;2023-07-31T06:39:17;4.05;;;3.38;;
56911;SDS011;42800;53.928;27.662;2023-07-31T06:41:43;6.00;;;4.65;;
56911;SDS011;42800;53.928;27.662;2023-07-31T06:44:10;3.88;;;3.13;;
56911;SDS011;42800;53.928;27.662;2023-07-31T06:46:36;3.90;;;3.60;;
56911;SDS011;42800;53.928;27.662;2023-07-31T06:49:02;4.50;;;3.45;;
56911;SDS011;42800;53.928;27.662;2023-07-31T06:51:28;3.70;;;3.40;;
56911;SDS011;42800;53.928;27.662;2023-07-31T06:53:56;5.55;;;3.50;;
56911;SDS011;42800;53.928;27.662;2023-07-31T06:56:22;4.20;;;3.75;;
56911;SDS011;42800;53.928;27.662;2023-07-31T06:58:48;8.85;;;4.40;;
56911;SDS011;42800;53.928;27.662;2023-07-31T07:01:14;8.13;;;4.47;;
56911;SDS011;42800;53.928;27.662;2023-07-31T07:03:40;5.35;;;4.82;;
56911;SDS011;42800;53.928;27.662;2023-07-31T07:06:06;7.18;;;3.78;;
56911;SDS011;42800;53.928;27.662;2023-07-31T07:08:33;7.47;;;5.13;;
56911;SDS011;42800;53.928;27.662;2023-07-31T07:10:59;9.90;;;5.15;;
56911;SDS011;42800;53.928;27.662;2023-07-31T07:13:24;5.05;;;4.28;;
56911;SDS011;42800;53.928;27.662;2023-07-31T07:15:50;5.10;;;4.35;;
56911;SDS011;42800;53.928;27.662;2023-07-31T07:18:17;6.68;;;3.58;;
56911;SDS011;42800;53.928;27.662;2023-07-31T07:20:46;9.10;;;5.70;;
56911;SDS011;42800;53.928;27.662;2023-07-31T07:23:13;6.47;;;5.32;;
56911;SDS011;42800;53.928;27.662;2023-07-31T07:25:39;10.30;;;6.18;;
56911;SDS011;42800;53.928;27.662;2023-07-31T07:28:05;8.77;;;6.30;;
56911;SDS011;42800;53.928;27.662;2023-07-31T07:30:31;9.52;;;5.55;;
56911;SDS011;42800;53.928;27.662;2023-07-31T07:32:57;10.63;;;6.53;;
56911;SDS011;42800;53.928;27.662;2023-07-31T07:35:23;14.88;;;6.45;;
56911;SDS011;42800;53.928;27.662;2023-07-31T07:37:49;9.13;;;6.05;;
56911;SDS011;42800;53.928;27.662;2023-07-31T07:40:15;9.23;;;4.47;;
56911;SDS011;42800;53.928;27.662;2023-07-31T07:42:42;6.15;;;4.80;;
56911;SDS011;42800;53.928;27.662;2023-07-31T07:45:08;8.10;;;4.30;;
56911;SDS011;42800;53.928;27.662;2023-07-31T07:47:34;8.13;;;6.30;;
56911;SDS011;42800;53.928;27.662;2023-07-31T07:50:00;12.57;;;6.10;;
56911;SDS011;42800;53.928;27.662;2023-07-31T07:52:26;8.65;;;5.03;;
56911;SDS011;42800;53.928;27.662;2023-07-31T07:54:53;10.25;;;6.00;;
56911;SDS011;42800;53.928;27.662;2023-07-31T07:57:19;11.88;;;7.07;;
56911;SDS011;42800;53.928;27.662;2023-07-31T07:59:45;16.17;;;11.75;;
56911;SDS011;42800;53.928;27.662;2023-07-31T08:02:11;20.48;;;12.98;;
56911;SDS011;42800;53.928;27.662;2023-07-31T08:04:37;16.23;;;11.55;;
56911;SDS011;42800;53.928;27.662;2023-07-31T08:07:03;21.77;;;12.00;;
56911;SDS011;42800;53.928;27.662;2023-07-31T08:09:29;15.15;;;9.80;;
56911;SDS011;42800;53.928;27.662;2023-07-31T08:11:55;18.98;;;10.90;;
56911;SDS011;42800;53.928;27.662;2023-07-31T08:14:26;23.05;;;15.02;;
56911;SDS011;42800;53.928;27.662;2023-07-31T08:16:53;26.98;;;13.93;;
56911;SDS011;42800;53.928;27.662;2023-07-31T08:19:19;20.35;;;13.43;;
56911;SDS011;42800;53.928;27.662;2023-07-31T08:21:45;25.20;;;13.25;;
56911;SDS011;42800;53.928;27.662;2023-07-31T08:24:11;20.40;;;12.23;;
56911;SDS011;42800;53.928;27.662;2023-07-31T08:26:37;25.83;;;13.50;;
56911;SDS011;42800;53.928;27.662;2023-07-31T08:29:02;19.63;;;12.40;;
56911;SDS011;42800;53.928;27.662;2023-07-31T08:31:28;21.98;;;12.90;;
56911;SDS011;42800;53.928;27.662;2023-07-31T08:33:55;15.63;;;10.82;;
56911;SDS011;42800;53.928;27.662;2023-07-31T08:36:21;18.30;;;10.05;;
56911;SDS011;42800;53.928;27.662;2023-07-31T08:38:47;13.70;;;8.95;;
56911;SDS011;42800;53.928;27.662;2023-07-31T08:41:14;17.42;;;9.23;;
56911;SDS011;42800;53.928;27.662;2023-07-31T08:43:42;14.82;;;8.02;;
56911;SDS011;42800;53.928;27.662;2023-07-31T08:46:10;13.52;;;7.60;;
56911;SDS011;42800;53.928;27.662;2023-07-31T08:48:37;13.13;;;6.88;;
56911;SDS011;42800;53.928;27.662;2023-07-31T08:51:04;10.50;;;6.00;;
56911;SDS011;42800;53.928;27.662;2023-07-31T08:53:30;14.27;;;7.43;;
56911;SDS011;42800;53.928;27.662;2023-07-31T08:55:56;10.73;;;6.07;;
56911;SDS011;42800;53.928;27.662;2023-07-31T08:58:24;13.00;;;6.38;;
56911;SDS011;42800;53.928;27.662;2023-07-31T09:00:52;9.80;;;5.53;;
56911;SDS011;42800;53.928;27.662;2023-07-31T09:03:21;8.82;;;5.82;;
56911;SDS011;42800;53.928;27.662;2023-07-31T09:05:50;8.30;;;4.57;;
56911;SDS011;42800;53.928;27.662;2023-07-31T09:08:17;6.40;;;4.50;;
56911;SDS011;42800;53.928;27.662;2023-07-31T09:10:45;8.18;;;4.13;;
56911;SDS011;42800;53.928;27.662;2023-07-31T09:13:11;10.75;;;4.50;;
56911;SDS011;42800;53.928;27.662;2023-07-31T09:15:38;6.70;;;5.13;;
56911;SDS011;42800;53.928;27.662;2023-07-31T09:18:05;11.73;;;4.47;;
56911;SDS011;42800;53.928;27.662;2023-07-31T09:20:32;9.13;;;3.75;;
56911;SDS011;42800;53.928;27.662;2023-07-31T09:23:04;10.70;;;3.90;;
56911;SDS011;42800;53.928;27.662;2023-07-31T09:25:33;5.50;;;3.95;;
56911;SDS011;42800;53.928;27.662;2023-07-31T09:27:59;5.88;;;3.50;;
56911;SDS011;42800;53.928;27.662;2023-07-31T09:30:26;9.68;;;3.35;;
56911;SDS011;42800;53.928;27.662;2023-07-31T09:32:59;5.95;;;3.25;;
56911;SDS011;42800;53.928;27.662;2023-07-31T09:35:27;6.32;;;3.30;;
56911;SDS011;42800;53.928;27.662;2023-07-31T09:37:55;5.78;;;3.17;;
56911;SDS011;42800;53.928;27.662;2023-07-31T09:40:26;7.82;;;3.17;;
56911;SDS011;42800;53.928;27.662;2023-07-31T09:42:54;5.03;;;2.50;;
56911;SDS011;42800;53.928;27.662;2023-07-31T09:45:23;3.85;;;2.55;;
56911;SDS011;42800;53.928;27.662;2023-07-31T09:47:48;3.55;;;2.55;;
56911;SDS011;42800;53.928;27.662;2023-07-31T09:50:14;6.25;;;3.05;;
56911;SDS011;42800;53.928;27.662;2023-07-31T09:52:41;7.05;;;3.20;;
56911;SDS011;42800;53.928;27.662;2023-07-31T09:55:07;5.40;;;3.17;;
56911;SDS011;42800;53.928;27.662;2023-07-31T09:57:33;4.03;;;2.88;;
56911;SDS011;42800;53.928;27.662;2023-07-31T10:00:00;8.88;;;3.10;;
56911;SDS011;42800;53.928;27.662;2023-07-31T10:02:26;10.38;;;3.10;;
56911;SDS011;42800;53.928;27.662;2023-07-31T10:04:54;6.20;;;4.22;;
56911;SDS011;42800;53.928;27.662;2023-07-31T10:07:23;6.88;;;3.85;;
56911;SDS011;42800;53.928;27.662;2023-07-31T10:09:53;5.50;;;3.00;;
56911;SDS011;42800;53.928;27.662;2023-07-31T10:12:22;3.53;;;2.55;;
56911;SDS011;42800;53.928;27.662;2023-07-31T10:14:51;3.10;;;2.45;;
56911;SDS011;42800;53.928;27.662;2023-07-31T10:17:20;3.08;;;2.78;;
56911;SDS011;42800;53.928;27.662;2023-07-31T10:19:47;2.70;;;2.50;;
56911;SDS011;42800;53.928;27.662;2023-07-31T10:22:13;3.35;;;2.55;;
56911;SDS011;42800;53.928;27.662;2023-07-31T10:24:40;2.88;;;2.60;;
56911;SDS011;42800;53.928;27.662;2023-07-31T10:27:07;2.88;;;2.67;;
56911;SDS011;42800;53.928;27.662;2023-07-31T10:29:35;3.90;;;2.47;;
56911;SDS011;42800;53.928;27.662;2023-07-31T10:32:02;11.20;;;3.15;;
56911;SDS011;42800;53.928;27.662;2023-07-31T10:34:32;13.82;;;3.42;;
56911;SDS011;42800;53.928;27.662;2023-07-31T10:39:54;5.53;;;2.78;;
56911;SDS011;42800;53.928;27.662;2023-07-31T10:42:28;7.47;;;3.20;;
56911;SDS011;42800;53.928;27.662;2023-07-31T10:44:56;5.82;;;3.08;;
56911;SDS011;42800;53.928;27.662;2023-07-31T10:47:23;8.50;;;2.50;;
56911;SDS011;42800;53.928;27.662;2023-07-31T10:49:50;3.03;;;2.70;;
56911;SDS011;42800;53.928;27.662;2023-07-31T10:52:19;4.38;;;2.40;;
56911;SDS011;42800;53.928;27.662;2023-07-31T10:54:47;5.95;;;2.83;;
56911;SDS011;42800;53.928;27.662;2023-07-31T10:57:20;4.55;;;2.65;;
56911;SDS011;42800;53.928;27.662;2023-07-31T10:59:46;4.30;;;2.38;;
56911;SDS011;42800;53.928;27.662;2023-07-31T11:02:23;4.35;;;2.38;;
56911;SDS011;42800;53.928;27.662;2023-07-31T11:05:05;2.88;;;2.60;;
56911;SDS011;42800;53.928;27.662;2023-07-31T11:07:45;39.67;;;5.82;;
56911;SDS011;42800;53.928;27.662;2023-07-31T11:10:14;7.60;;;2.95;;
56911;SDS011;42800;53.928;27.662;2023-07-31T11:12:42;8.13;;;4.50;;
56911;SDS011;42800;53.928;27.662;2023-07-31T11:15:08;4.50;;;2.50;;
56911;SDS011;42800;53.928;27.662;2023-07-31T11:17:38;2.60;;;2.30;;
56911;SDS011;42800;53.928;27.662;2023-07-31T11:20:04;3.05;;;2.30;;
56911;SDS011;42800;53.928;27.662;2023-07-31T11:22:32;2.78;;;2.30;;
56911;SDS011;42800;53.928;27.662;2023-07-31T11:24:59;3.33;;;2.22;;
56911;SDS011;42800;53.928;27.662;2023-07-31T11:27:27;3.22;;;2.53;;
56911;SDS011;42800;53.928;27.662;2023-07-31T11:29:53;3.38;;;2.28;;
56911;SDS011;42800;53.928;27.662;2023-07-31T11:32:18;2.65;;;2.45;;
56911;SDS011;42800;53.928;27.662;2023-07-31T11:34:51;3.30;;;2.40;;
56911;SDS011;42800;53.928;27.662;2023-07-31T11:37:18;5.63;;;2.40;;
56911;SDS011;42800;53.928;27.662;2023-07-31T11:39:44;4.80;;;2.58;;
56911;SDS011;42800;53.928;27.662;2023-07-31T11:42:24;5.78;;;2.50;;
56911;SDS011;42800;53.928;27.662;2023-07-31T11:44:50;4.05;;;3.47;;
56911;SDS011;42800;53.928;27.662;2023-07-31T11:47:16;7.57;;;2.50;;
56911;SDS011;42800;53.928;27.662;2023-07-31T11:49:42;2.90;;;2.40;;
56911;SDS011;42800;53.928;27.662;2023-07-31T11:52:09;3.45;;;2.58;;
56911;SDS011;42800;53.928;27.662;2023-07-31T11:54:37;4.55;;;2.30;;
56911;SDS011;42800;53.928;27.662;2023-07-31T11:57:04;4.00;;;2.45;;
56911;SDS011;42800;53.928;27.662;2023-07-31T11:59:31;6.22;;;2.50;;
56911;SDS011;42800;53.928;27.662;2023-07-31T12:01:57;5.78;;;2.95;;
56911;SDS011;42800;53.928;27.662;2023-07-31T12:04:23;3.03;;;2.83;;
56911;SDS011;42800;53.928;27.662;2023-07-31T12:06:52;8.68;;;3.33;;
56911;SDS011;42800;53.928;27.662;2023-07-31T12:09:18;4.22;;;2.65;;
56911;SDS011;42800;53.928;27.662;2023-07-31T12:11:45;2.97;;;2.53;;
56911;SDS011;42800;53.928;27.662;2023-07-31T12:14:19;2.55;;;2.35;;
56911;SDS011;42800;53.928;27.662;2023-07-31T12:16:46;5.97;;;2.42;;
56911;SDS011;42800;53.928;27.662;2023-07-31T12:19:12;5.97;;;2.88;;
56911;SDS011;42800;53.928;27.662;2023-07-31T12:21:38;2.65;;;2.45;;
56911;SDS011;42800;53.928;27.662;2023-07-31T12:24:04;4.40;;;3.00;;
56911;SDS011;42800;53.928;27.662;2023-07-31T12:26:33;6.28;;;2.70;;
56911;SDS011;42800;53.928;27.662;2023-07-31T12:29:00;2.53;;;2.30;;
56911;SDS011;42800;53.928;27.662;2023-07-31T12:31:27;4.85;;;2.35;;
56911;SDS011;42800;53.928;27.662;2023-07-31T12:33:54;4.47;;;4.13;;
56911;SDS011;42800;53.928;27.662;2023-07-31T12:36:22;4.57;;;3.10;;
56911;SDS011;42800;53.928;27.662;2023-07-31T12:38:49;3.15;;;2.85;;
56911;SDS011;42800;53.928;27.662;2023-07-31T12:41:16;4.10;;;2.83;;
56911;SDS011;42800;53.928;27.662;2023-07-31T12:43:42;3.28;;;2.83;;
56911;SDS011;42800;53.928;27.662;2023-07-31T12:46:10;3.58;;;2.80;;
56911;SDS011;42800;53.928;27.662;2023-07-31T12:48:36;4.53;;;2.90;;
56911;SDS011;42800;53.928;27.662;2023-07-31T12:51:03;6.68;;;3.15;;
56911;SDS011;42800;53.928;27.662;2023-07-31T12:53:29;11.18;;;2.58;;
56911;SDS011;42800;53.928;27.662;2023-07-31T12:55:55;18.83;;;3.33;;
56911;SDS011;42800;53.928;27.662;2023-07-31T12:58:21;10.63;;;3.13;;
56911;SDS011;42800;53.928;27.662;2023-07-31T13:00:47;4.05;;;2.10;;
56911;SDS011;42800;53.928;27.662;2023-07-31T13:03:14;11.27;;;2.30;;
56911;SDS011;42800;53.928;27.662;2023-07-31T13:05:40;8.40;;;2.75;;
56911;SDS011;42800;53.928;27.662;2023-07-31T13:08:06;2.42;;;2.20;;
56911;SDS011;42800;53.928;27.662;2023-07-31T13:10:32;9.55;;;4.45;;
56911;SDS011;42800;53.928;27.662;2023-07-31T13:12:58;5.53;;;2.75;;
56911;SDS011;42800;53.928;27.662;2023-07-31T13:15:24;7.30;;;3.05;;
56911;SDS011;42800;53.928;27.662;2023-07-31T13:17:50;7.20;;;2.72;;
56911;SDS011;42800;53.928;27.662;2023-07-31T13:20:17;8.75;;;3.45;;
56911;SDS011;42800;53.928;27.662;2023-07-31T13:22:43;27.65;;;4.20;;
56911;SDS011;42800;53.928;27.662;2023-07-31T13:25:09;22.10;;;4.03;;
56911;SDS011;42800;53.928;27.662;2023-07-31T13:27:34;18.38;;;4.40;;
56911;SDS011;42800;53.928;27.662;2023-07-31T13:30:00;8.38;;;4.30;;
56911;SDS011;42800;53.928;27.662;2023-07-31T13:32:27;5.22;;;3.65;;
56911;SDS011;42800;53.928;27.662;2023-07-31T13:34:53;11.63;;;3.90;;
56911;SDS011;42800;53.928;27.662;2023-07-31T13:37:19;7.22;;;3.70;;
56911;SDS011;42800;53.928;27.662;2023-07-31T13:39:45;10.90;;;4.03;;
56911;SDS011;42800;53.928;27.662;2023-07-31T13:42:11;7.03;;;3.60;;
56911;SDS011;42800;53.928;27.662;2023-07-31T13:44:38;4.93;;;3.42;;
56911;SDS011;42800;53.928;27.662;2023-07-31T13:47:04;10.70;;;5.18;;
56911;SDS011;42800;53.928;27.662;2023-07-31T13:49:30;8.43;;;3.60;;
56911;SDS011;42800;53.928;27.662;2023-07-31T13:51:56;6.55;;;3.35;;
56911;SDS011;42800;53.928;27.662;2023-07-31T13:54:23;5.18;;;3.45;;
56911;SDS011;42800;53.928;27.662;2023-07-31T13:56:49;11.50;;;5.93;;
56911;SDS011;42800;53.928;27.662;2023-07-31T13:59:15;7.72;;;4.18;;
56911;SDS011;42800;53.928;27.662;2023-07-31T14:01:41;11.65;;;4.38;;
56911;SDS011;42800;53.928;27.662;2023-07-31T14:04:08;11.18;;;4.32;;
56911;SDS011;42800;53.928;27.662;2023-07-31T14:06:33;10.88;;;4.53;;
56911;SDS011;42800;53.928;27.662;2023-07-31T14:08:59;11.77;;;4.57;;
56911;SDS011;42800;53.928;27.662;2023-07-31T14:11:26;6.82;;;4.32;;
56911;SDS011;42800;53.928;27.662;2023-07-31T14:13:52;12.32;;;3.78;;
56911;SDS011;42800;53.928;27.662;2023-07-31T14:16:18;10.40;;;4.00;;
56911;SDS011;42800;53.928;27.662;2023-07-31T14:18:44;9.27;;;3.47;;
56911;SDS011;42800;53.928;27.662;2023-07-31T14:21:10;6.45;;;3.97;;
56911;SDS011;42800;53.928;27.662;2023-07-31T14:23:36;10.05;;;3.85;;